sensor_id;sensor_type;location;lat;lon;timestamp;P1;durP1;ratioP1;P2;durP2;ratioP2
4595;SDS011;2310;49.978;8.742;2023-09-19T00:02:09;3.57;;;1.77;;
4595;SDS011;2310;49.978;8.742;2023-09-19T00:06:12;4.97;;;2.13;;
4595;SDS011;2310;49.978;8.742;2023-09-19T00:10:15;6.40;;;2.30;;
4595;SDS011;2310;49.978;8.742;2023-09-19T00:14:18;4.00;;;2.00;;
4595;SDS011;2310;49.978;8.742;2023-09-19T00:18:19;4.30;;;2.17;;
4595;SDS011;2310;49.978;8.742;2023-09-19T00:22:26;5.37;;;2.00;;
4595;SDS011;2310;49.978;8.742;2023-09-19T00:26:27;9.73;;;2.73;;
4595;SDS011;2310;49.978;8.742;2023-09-19T00:30:30;5.57;;;2.50;;
4595;SDS011;2310;49.978;8.742;2023-09-19T00:34:32;4.00;;;1.77;;
4595;SDS011;2310;49.978;8.742;2023-09-19T00:38:35;4.00;;;2.20;;
4595;SDS011;2310;49.978;8.742;2023-09-19T00:42:36;4.57;;;2.47;;
4595;SDS011;2310;49.978;8.742;2023-09-19T00:46:38;5.07;;;2.37;;
4595;SDS011;2310;49.978;8.742;2023-09-19T00:50:41;6.57;;;2.30;;
4595;SDS011;2310;49.978;8.742;2023-09-19T00:54:45;5.33;;;1.93;;
4595;SDS011;2310;49.978;8.742;2023-09-19T00:58:47;4.70;;;2.97;;
4595;SDS011;2310;49.978;8.742;2023-09-19T01:02:49;5.53;;;2.47;;
4595;SDS011;2310;49.978;8.742;2023-09-19T01:06:53;5.00;;;2.03;;
4595;SDS011;2310;49.978;8.742;2023-09-19T01:10:55;5.10;;;2.17;;
4595;SDS011;2310;49.978;8.742;2023-09-19T01:15:01;5.90;;;2.53;;
4595;SDS011;2310;49.978;8.742;2023-09-19T01:28:04;5.10;;;2.50;;
4595;SDS011;2310;49.978;8.742;2023-09-19T01:32:03;4.90;;;2.50;;
4595;SDS011;2310;49.978;8.742;2023-09-19T01:36:06;6.40;;;2.67;;
4595;SDS011;2310;49.978;8.742;2023-09-19T01:40:10;5.60;;;2.53;;
4595;SDS011;2310;49.978;8.742;2023-09-19T01:44:22;4.83;;;2.30;;
4595;SDS011;2310;49.978;8.742;2023-09-19T01:48:35;5.50;;;2.67;;
4595;SDS011;2310;49.978;8.742;2023-09-19T01:52:49;6.57;;;2.63;;
4595;SDS011;2310;49.978;8.742;2023-09-19T01:57:07;5.10;;;2.60;;
4595;SDS011;2310;49.978;8.742;2023-09-19T02:01:11;4.10;;;2.43;;
4595;SDS011;2310;49.978;8.742;2023-09-19T02:05:21;5.03;;;3.20;;
4595;SDS011;2310;49.978;8.742;2023-09-19T02:09:26;6.70;;;2.97;;
4595;SDS011;2310;49.978;8.742;2023-09-19T02:13:28;5.27;;;3.20;;
4595;SDS011;2310;49.978;8.742;2023-09-19T02:17:32;5.50;;;3.10;;
4595;SDS011;2310;49.978;8.742;2023-09-19T02:21:34;5.27;;;2.80;;
4595;SDS011;2310;49.978;8.742;2023-09-19T02:25:35;7.07;;;2.80;;
4595;SDS011;2310;49.978;8.742;2023-09-19T02:29:36;5.23;;;2.83;;
4595;SDS011;2310;49.978;8.742;2023-09-19T02:33:38;7.40;;;3.20;;
4595;SDS011;2310;49.978;8.742;2023-09-19T02:37:40;6.87;;;3.33;;
4595;SDS011;2310;49.978;8.742;2023-09-19T02:41:41;6.27;;;2.50;;
4595;SDS011;2310;49.978;8.742;2023-09-19T02:45:42;7.50;;;3.60;;
4595;SDS011;2310;49.978;8.742;2023-09-19T02:49:44;5.93;;;3.00;;
4595;SDS011;2310;49.978;8.742;2023-09-19T02:53:45;5.67;;;3.30;;
4595;SDS011;2310;49.978;8.742;2023-09-19T02:57:52;6.00;;;3.40;;
4595;SDS011;2310;49.978;8.742;2023-09-19T03:01:57;8.83;;;3.67;;
4595;SDS011;2310;49.978;8.742;2023-09-19T03:05:59;7.17;;;3.40;;
4595;SDS011;2310;49.978;8.742;2023-09-19T03:10:03;4.33;;;2.93;;
4595;SDS011;2310;49.978;8.742;2023-09-19T03:14:06;4.03;;;2.63;;
4595;SDS011;2310;49.978;8.742;2023-09-19T03:18:07;7.67;;;3.70;;
4595;SDS011;2310;49.978;8.742;2023-09-19T03:22:08;5.40;;;2.87;;
4595;SDS011;2310;49.978;8.742;2023-09-19T03:26:10;4.23;;;3.33;;
4595;SDS011;2310;49.978;8.742;2023-09-19T03:30:14;5.33;;;3.03;;
4595;SDS011;2310;49.978;8.742;2023-09-19T03:34:15;4.97;;;2.73;;
4595;SDS011;2310;49.978;8.742;2023-09-19T03:38:17;5.13;;;3.10;;
4595;SDS011;2310;49.978;8.742;2023-09-19T03:42:19;9.63;;;3.90;;
4595;SDS011;2310;49.978;8.742;2023-09-19T03:46:22;5.00;;;3.17;;
4595;SDS011;2310;49.978;8.742;2023-09-19T03:50:23;7.37;;;3.53;;
4595;SDS011;2310;49.978;8.742;2023-09-19T03:54:25;5.70;;;2.80;;
4595;SDS011;2310;49.978;8.742;2023-09-19T03:58:26;5.10;;;2.70;;
4595;SDS011;2310;49.978;8.742;2023-09-19T04:02:28;4.33;;;3.10;;
4595;SDS011;2310;49.978;8.742;2023-09-19T04:06:31;5.20;;;3.33;;
4595;SDS011;2310;49.978;8.742;2023-09-19T04:10:32;5.87;;;3.03;;
4595;SDS011;2310;49.978;8.742;2023-09-19T04:14:34;5.70;;;3.30;;
4595;SDS011;2310;49.978;8.742;2023-09-19T04:18:35;4.77;;;3.13;;
4595;SDS011;2310;49.978;8.742;2023-09-19T04:22:39;5.20;;;3.30;;
4595;SDS011;2310;49.978;8.742;2023-09-19T04:26:43;5.10;;;3.37;;
4595;SDS011;2310;49.978;8.742;2023-09-19T04:30:44;5.10;;;3.77;;
4595;SDS011;2310;49.978;8.742;2023-09-19T04:34:45;6.23;;;3.00;;
4595;SDS011;2310;49.978;8.742;2023-09-19T04:38:49;7.37;;;3.40;;
4595;SDS011;2310;49.978;8.742;2023-09-19T04:42:54;5.47;;;3.30;;
4595;SDS011;2310;49.978;8.742;2023-09-19T04:46:58;6.93;;;3.63;;
4595;SDS011;2310;49.978;8.742;2023-09-19T04:51:00;17.23;;;3.97;;
4595;SDS011;2310;49.978;8.742;2023-09-19T04:55:02;7.17;;;3.90;;
4595;SDS011;2310;49.978;8.742;2023-09-19T04:59:04;7.10;;;4.33;;
4595;SDS011;2310;49.978;8.742;2023-09-19T05:03:06;5.83;;;4.50;;
4595;SDS011;2310;49.978;8.742;2023-09-19T05:07:09;5.30;;;4.17;;
4595;SDS011;2310;49.978;8.742;2023-09-19T05:11:11;6.20;;;3.93;;
4595;SDS011;2310;49.978;8.742;2023-09-19T05:15:13;6.63;;;3.60;;
4595;SDS011;2310;49.978;8.742;2023-09-19T05:19:20;6.77;;;3.77;;
4595;SDS011;2310;49.978;8.742;2023-09-19T05:23:22;6.20;;;3.70;;
4595;SDS011;2310;49.978;8.742;2023-09-19T05:27:23;7.97;;;3.03;;
4595;SDS011;2310;49.978;8.742;2023-09-19T05:31:25;5.40;;;3.23;;
4595;SDS011;2310;49.978;8.742;2023-09-19T05:35:26;5.70;;;3.23;;
4595;SDS011;2310;49.978;8.742;2023-09-19T05:39:28;9.43;;;4.10;;
4595;SDS011;2310;49.978;8.742;2023-09-19T05:43:32;6.30;;;3.80;;
4595;SDS011;2310;49.978;8.742;2023-09-19T05:47:33;7.40;;;4.53;;
4595;SDS011;2310;49.978;8.742;2023-09-19T05:51:35;5.97;;;4.60;;
4595;SDS011;2310;49.978;8.742;2023-09-19T05:55:36;8.60;;;4.47;;
4595;SDS011;2310;49.978;8.742;2023-09-19T05:59:38;8.57;;;5.67;;
4595;SDS011;2310;49.978;8.742;2023-09-19T06:03:41;8.50;;;5.63;;
4595;SDS011;2310;49.978;8.742;2023-09-19T06:07:42;8.03;;;5.50;;
4595;SDS011;2310;49.978;8.742;2023-09-19T06:11:44;9.00;;;5.07;;
4595;SDS011;2310;49.978;8.742;2023-09-19T06:15:45;8.07;;;5.43;;
4595;SDS011;2310;49.978;8.742;2023-09-19T06:19:49;6.40;;;4.87;;
4595;SDS011;2310;49.978;8.742;2023-09-19T06:23:51;8.27;;;5.40;;
4595;SDS011;2310;49.978;8.742;2023-09-19T06:27:53;7.10;;;4.47;;
4595;SDS011;2310;49.978;8.742;2023-09-19T06:31:55;7.33;;;4.97;;
4595;SDS011;2310;49.978;8.742;2023-09-19T06:35:57;11.70;;;4.97;;
4595;SDS011;2310;49.978;8.742;2023-09-19T06:40:00;5.87;;;4.73;;
4595;SDS011;2310;49.978;8.742;2023-09-19T06:44:02;8.37;;;4.53;;
4595;SDS011;2310;49.978;8.742;2023-09-19T06:48:03;6.90;;;3.90;;
4595;SDS011;2310;49.978;8.742;2023-09-19T06:52:06;6.00;;;3.87;;
4595;SDS011;2310;49.978;8.742;2023-09-19T06:56:08;7.17;;;3.73;;
4595;SDS011;2310;49.978;8.742;2023-09-19T07:00:09;9.40;;;3.67;;
4595;SDS011;2310;49.978;8.742;2023-09-19T07:04:14;7.00;;;4.07;;
4595;SDS011;2310;49.978;8.742;2023-09-19T07:08:15;8.40;;;3.30;;
4595;SDS011;2310;49.978;8.742;2023-09-19T07:12:17;6.37;;;3.83;;
4595;SDS011;2310;49.978;8.742;2023-09-19T07:16:19;8.17;;;4.00;;
4595;SDS011;2310;49.978;8.742;2023-09-19T07:20:23;7.53;;;3.67;;
4595;SDS011;2310;49.978;8.742;2023-09-19T07:24:27;7.60;;;3.73;;
4595;SDS011;2310;49.978;8.742;2023-09-19T07:28:29;8.10;;;3.97;;
4595;SDS011;2310;49.978;8.742;2023-09-19T07:32:31;7.43;;;3.80;;
4595;SDS011;2310;49.978;8.742;2023-09-19T07:36:33;7.90;;;3.87;;
4595;SDS011;2310;49.978;8.742;2023-09-19T07:40:36;5.87;;;3.30;;
4595;SDS011;2310;49.978;8.742;2023-09-19T07:44:37;5.57;;;3.50;;
4595;SDS011;2310;49.978;8.742;2023-09-19T07:48:39;9.30;;;3.80;;
4595;SDS011;2310;49.978;8.742;2023-09-19T07:52:41;7.70;;;3.73;;
4595;SDS011;2310;49.978;8.742;2023-09-19T07:56:44;7.60;;;3.23;;
4595;SDS011;2310;49.978;8.742;2023-09-19T08:00:46;5.57;;;2.83;;
4595;SDS011;2310;49.978;8.742;2023-09-19T08:04:48;6.80;;;3.20;;
4595;SDS011;2310;49.978;8.742;2023-09-19T08:08:50;5.77;;;3.20;;
4595;SDS011;2310;49.978;8.742;2023-09-19T08:12:54;7.23;;;2.80;;
4595;SDS011;2310;49.978;8.742;2023-09-19T08:16:57;4.47;;;2.50;;
4595;SDS011;2310;49.978;8.742;2023-09-19T08:20:59;4.50;;;2.67;;
4595;SDS011;2310;49.978;8.742;2023-09-19T08:25:02;5.17;;;2.63;;
4595;SDS011;2310;49.978;8.742;2023-09-19T08:29:04;5.70;;;2.60;;
4595;SDS011;2310;49.978;8.742;2023-09-19T08:33:07;6.53;;;2.90;;
4595;SDS011;2310;49.978;8.742;2023-09-19T08:37:08;5.50;;;2.30;;
4595;SDS011;2310;49.978;8.742;2023-09-19T08:41:11;6.37;;;2.33;;
4595;SDS011;2310;49.978;8.742;2023-09-19T08:45:13;6.03;;;2.40;;
4595;SDS011;2310;49.978;8.742;2023-09-19T08:49:24;6.73;;;2.13;;
4595;SDS011;2310;49.978;8.742;2023-09-19T08:58:06;8.20;;;2.60;;
4595;SDS011;2310;49.978;8.742;2023-09-19T09:02:11;6.20;;;2.80;;
4595;SDS011;2310;49.978;8.742;2023-09-19T09:06:14;6.10;;;2.37;;
4595;SDS011;2310;49.978;8.742;2023-09-19T09:10:20;5.80;;;2.63;;
4595;SDS011;2310;49.978;8.742;2023-09-19T09:14:24;4.73;;;2.43;;
4595;SDS011;2310;49.978;8.742;2023-09-19T09:18:26;7.20;;;2.83;;
4595;SDS011;2310;49.978;8.742;2023-09-19T09:22:30;6.20;;;2.83;;
4595;SDS011;2310;49.978;8.742;2023-09-19T09:30:41;4.57;;;2.10;;
4595;SDS011;2310;49.978;8.742;2023-09-19T09:34:43;5.87;;;2.83;;
4595;SDS011;2310;49.978;8.742;2023-09-19T09:38:45;9.20;;;3.10;;
4595;SDS011;2310;49.978;8.742;2023-09-19T09:42:49;5.80;;;2.20;;
4595;SDS011;2310;49.978;8.742;2023-09-19T09:46:52;3.97;;;1.90;;
4595;SDS011;2310;49.978;8.742;2023-09-19T09:50:56;6.40;;;2.83;;
4595;SDS011;2310;49.978;8.742;2023-09-19T09:55:00;5.27;;;2.23;;
4595;SDS011;2310;49.978;8.742;2023-09-19T09:59:05;6.00;;;2.60;;
4595;SDS011;2310;49.978;8.742;2023-09-19T10:03:17;5.60;;;2.23;;
4595;SDS011;2310;49.978;8.742;2023-09-19T10:07:23;5.17;;;2.40;;
4595;SDS011;2310;49.978;8.742;2023-09-19T10:11:18;6.37;;;2.47;;
4595;SDS011;2310;49.978;8.742;2023-09-19T10:15:20;7.23;;;2.70;;
4595;SDS011;2310;49.978;8.742;2023-09-19T10:23:34;4.53;;;2.27;;
4595;SDS011;2310;49.978;8.742;2023-09-19T10:27:38;6.87;;;2.67;;
4595;SDS011;2310;49.978;8.742;2023-09-19T10:31:41;5.73;;;2.77;;
4595;SDS011;2310;49.978;8.742;2023-09-19T10:35:46;4.60;;;2.20;;
4595;SDS011;2310;49.978;8.742;2023-09-19T10:39:48;7.40;;;2.77;;
4595;SDS011;2310;49.978;8.742;2023-09-19T10:43:51;5.00;;;2.30;;
4595;SDS011;2310;49.978;8.742;2023-09-19T10:47:55;6.40;;;3.60;;
4595;SDS011;2310;49.978;8.742;2023-09-19T10:51:58;5.97;;;2.50;;
4595;SDS011;2310;49.978;8.742;2023-09-19T10:56:01;6.50;;;2.90;;
4595;SDS011;2310;49.978;8.742;2023-09-19T11:00:05;7.10;;;2.73;;
4595;SDS011;2310;49.978;8.742;2023-09-19T11:12:54;4.77;;;2.53;;
4595;SDS011;2310;49.978;8.742;2023-09-19T11:29:44;6.37;;;2.90;;
4595;SDS011;2310;49.978;8.742;2023-09-19T11:33:47;6.20;;;2.67;;
4595;SDS011;2310;49.978;8.742;2023-09-19T11:38:09;6.80;;;2.30;;
4595;SDS011;2310;49.978;8.742;2023-09-19T11:41:54;5.83;;;2.40;;
4595;SDS011;2310;49.978;8.742;2023-09-19T11:50:02;6.37;;;2.47;;
4595;SDS011;2310;49.978;8.742;2023-09-19T11:54:05;7.10;;;2.70;;
4595;SDS011;2310;49.978;8.742;2023-09-19T11:58:10;6.80;;;2.43;;
4595;SDS011;2310;49.978;8.742;2023-09-19T12:02:21;5.77;;;2.67;;
4595;SDS011;2310;49.978;8.742;2023-09-19T12:06:22;7.80;;;2.90;;
4595;SDS011;2310;49.978;8.742;2023-09-19T12:10:24;5.57;;;2.90;;
4595;SDS011;2310;49.978;8.742;2023-09-19T12:14:26;6.73;;;2.70;;
4595;SDS011;2310;49.978;8.742;2023-09-19T12:18:28;6.80;;;2.73;;
4595;SDS011;2310;49.978;8.742;2023-09-19T12:22:38;9.40;;;3.03;;
4595;SDS011;2310;49.978;8.742;2023-09-19T12:26:38;6.50;;;2.73;;
4595;SDS011;2310;49.978;8.742;2023-09-19T12:30:44;6.40;;;2.17;;
4595;SDS011;2310;49.978;8.742;2023-09-19T12:34:52;6.17;;;2.07;;
4595;SDS011;2310;49.978;8.742;2023-09-19T12:38:55;6.53;;;2.33;;
4595;SDS011;2310;49.978;8.742;2023-09-19T12:42:59;5.10;;;2.33;;
4595;SDS011;2310;49.978;8.742;2023-09-19T12:47:11;6.40;;;2.80;;
4595;SDS011;2310;49.978;8.742;2023-09-19T12:51:12;6.60;;;2.50;;
4595;SDS011;2310;49.978;8.742;2023-09-19T12:55:21;4.40;;;2.03;;
4595;SDS011;2310;49.978;8.742;2023-09-19T12:59:29;5.63;;;2.40;;
4595;SDS011;2310;49.978;8.742;2023-09-19T13:03:31;5.30;;;1.70;;
4595;SDS011;2310;49.978;8.742;2023-09-19T13:11:45;6.50;;;2.50;;
4595;SDS011;2310;49.978;8.742;2023-09-19T13:15:52;7.03;;;2.30;;
4595;SDS011;2310;49.978;8.742;2023-09-19T13:19:54;4.90;;;2.23;;
4595;SDS011;2310;49.978;8.742;2023-09-19T13:23:56;5.53;;;2.33;;
4595;SDS011;2310;49.978;8.742;2023-09-19T13:28:00;4.60;;;1.97;;
4595;SDS011;2310;49.978;8.742;2023-09-19T13:32:03;4.73;;;1.93;;
4595;SDS011;2310;49.978;8.742;2023-09-19T13:36:05;5.00;;;2.13;;
4595;SDS011;2310;49.978;8.742;2023-09-19T13:40:07;4.70;;;2.47;;
4595;SDS011;2310;49.978;8.742;2023-09-19T13:44:12;4.67;;;1.90;;
4595;SDS011;2310;49.978;8.742;2023-09-19T13:48:15;4.73;;;2.57;;
4595;SDS011;2310;49.978;8.742;2023-09-19T13:52:16;4.80;;;2.50;;
4595;SDS011;2310;49.978;8.742;2023-09-19T13:56:17;6.13;;;2.90;;
4595;SDS011;2310;49.978;8.742;2023-09-19T14:00:19;4.87;;;2.07;;
4595;SDS011;2310;49.978;8.742;2023-09-19T14:04:21;6.83;;;1.83;;
4595;SDS011;2310;49.978;8.742;2023-09-19T14:08:23;4.50;;;1.80;;
4595;SDS011;2310;49.978;8.742;2023-09-19T14:12:24;4.23;;;2.03;;
4595;SDS011;2310;49.978;8.742;2023-09-19T14:16:26;5.57;;;2.10;;
4595;SDS011;2310;49.978;8.742;2023-09-19T14:20:29;7.03;;;2.30;;
4595;SDS011;2310;49.978;8.742;2023-09-19T14:24:31;5.83;;;1.97;;
4595;SDS011;2310;49.978;8.742;2023-09-19T14:28:33;4.57;;;2.23;;
4595;SDS011;2310;49.978;8.742;2023-09-19T14:32:37;4.87;;;2.00;;
4595;SDS011;2310;49.978;8.742;2023-09-19T14:36:40;4.60;;;2.30;;
4595;SDS011;2310;49.978;8.742;2023-09-19T14:40:41;5.17;;;1.90;;
4595;SDS011;2310;49.978;8.742;2023-09-19T14:44:43;4.73;;;2.30;;
4595;SDS011;2310;49.978;8.742;2023-09-19T14:48:45;5.17;;;2.23;;
4595;SDS011;2310;49.978;8.742;2023-09-19T14:52:49;6.43;;;2.50;;
4595;SDS011;2310;49.978;8.742;2023-09-19T14:56:52;4.50;;;1.80;;
4595;SDS011;2310;49.978;8.742;2023-09-19T15:01:06;6.37;;;2.20;;
4595;SDS011;2310;49.978;8.742;2023-09-19T15:05:08;4.70;;;1.97;;
4595;SDS011;2310;49.978;8.742;2023-09-19T15:09:10;4.87;;;2.40;;
4595;SDS011;2310;49.978;8.742;2023-09-19T15:13:12;4.33;;;2.00;;
4595;SDS011;2310;49.978;8.742;2023-09-19T15:17:13;3.50;;;1.70;;
4595;SDS011;2310;49.978;8.742;2023-09-19T15:21:16;4.30;;;2.00;;
4595;SDS011;2310;49.978;8.742;2023-09-19T15:25:18;5.27;;;2.27;;
4595;SDS011;2310;49.978;8.742;2023-09-19T15:29:20;7.57;;;1.90;;
4595;SDS011;2310;49.978;8.742;2023-09-19T15:33:21;6.00;;;1.90;;
4595;SDS011;2310;49.978;8.742;2023-09-19T15:37:22;4.63;;;2.07;;
4595;SDS011;2310;49.978;8.742;2023-09-19T15:41:24;4.73;;;2.47;;
4595;SDS011;2310;49.978;8.742;2023-09-19T15:45:31;4.33;;;1.83;;
4595;SDS011;2310;49.978;8.742;2023-09-19T15:49:33;4.97;;;1.70;;
4595;SDS011;2310;49.978;8.742;2023-09-19T15:53:46;4.20;;;1.87;;
4595;SDS011;2310;49.978;8.742;2023-09-19T15:57:47;5.53;;;2.17;;
4595;SDS011;2310;49.978;8.742;2023-09-19T16:01:49;3.87;;;2.03;;
4595;SDS011;2310;49.978;8.742;2023-09-19T16:05:51;4.87;;;1.90;;
4595;SDS011;2310;49.978;8.742;2023-09-19T16:09:53;5.03;;;2.40;;
4595;SDS011;2310;49.978;8.742;2023-09-19T16:13:55;5.70;;;2.30;;
4595;SDS011;2310;49.978;8.742;2023-09-19T16:17:57;4.03;;;1.67;;
4595;SDS011;2310;49.978;8.742;2023-09-19T16:22:00;4.37;;;1.60;;
4595;SDS011;2310;49.978;8.742;2023-09-19T16:30:09;5.30;;;1.80;;
4595;SDS011;2310;49.978;8.742;2023-09-19T16:34:11;4.50;;;2.10;;
4595;SDS011;2310;49.978;8.742;2023-09-19T16:38:13;3.87;;;1.87;;
4595;SDS011;2310;49.978;8.742;2023-09-19T16:42:14;4.47;;;1.73;;
4595;SDS011;2310;49.978;8.742;2023-09-19T16:46:18;5.20;;;1.80;;
4595;SDS011;2310;49.978;8.742;2023-09-19T16:50:20;4.30;;;1.90;;
4595;SDS011;2310;49.978;8.742;2023-09-19T16:54:21;7.50;;;2.27;;
4595;SDS011;2310;49.978;8.742;2023-09-19T16:58:24;5.90;;;2.33;;
4595;SDS011;2310;49.978;8.742;2023-09-19T17:02:26;4.00;;;1.87;;
4595;SDS011;2310;49.978;8.742;2023-09-19T17:06:29;4.37;;;1.60;;
4595;SDS011;2310;49.978;8.742;2023-09-19T17:10:31;3.87;;;1.57;;
4595;SDS011;2310;49.978;8.742;2023-09-19T17:14:35;5.00;;;1.70;;
4595;SDS011;2310;49.978;8.742;2023-09-19T17:18:37;4.20;;;1.43;;
4595;SDS011;2310;49.978;8.742;2023-09-19T17:22:41;6.87;;;1.70;;
4595;SDS011;2310;49.978;8.742;2023-09-19T17:26:43;4.33;;;1.93;;
4595;SDS011;2310;49.978;8.742;2023-09-19T17:30:44;6.20;;;1.50;;
4595;SDS011;2310;49.978;8.742;2023-09-19T17:34:47;4.40;;;1.73;;
4595;SDS011;2310;49.978;8.742;2023-09-19T17:38:51;4.13;;;1.87;;
4595;SDS011;2310;49.978;8.742;2023-09-19T17:42:54;4.07;;;1.83;;
4595;SDS011;2310;49.978;8.742;2023-09-19T17:46:59;6.03;;;1.90;;
4595;SDS011;2310;49.978;8.742;2023-09-19T17:51:00;6.80;;;2.10;;
4595;SDS011;2310;49.978;8.742;2023-09-19T17:55:04;4.30;;;1.60;;
4595;SDS011;2310;49.978;8.742;2023-09-19T17:59:07;5.13;;;1.67;;
4595;SDS011;2310;49.978;8.742;2023-09-19T18:03:09;5.90;;;2.10;;
4595;SDS011;2310;49.978;8.742;2023-09-19T18:07:10;5.80;;;1.67;;
4595;SDS011;2310;49.978;8.742;2023-09-19T18:11:12;3.50;;;1.30;;
4595;SDS011;2310;49.978;8.742;2023-09-19T18:15:16;7.10;;;1.80;;
4595;SDS011;2310;49.978;8.742;2023-09-19T18:19:18;5.93;;;2.00;;
4595;SDS011;2310;49.978;8.742;2023-09-19T18:23:21;5.80;;;1.80;;
4595;SDS011;2310;49.978;8.742;2023-09-19T18:27:22;6.77;;;2.23;;
4595;SDS011;2310;49.978;8.742;2023-09-19T18:31:24;4.07;;;1.70;;
4595;SDS011;2310;49.978;8.742;2023-09-19T18:35:25;3.90;;;1.23;;
4595;SDS011;2310;49.978;8.742;2023-09-19T18:39:32;5.07;;;1.57;;
4595;SDS011;2310;49.978;8.742;2023-09-19T18:43:35;5.07;;;1.43;;
4595;SDS011;2310;49.978;8.742;2023-09-19T18:47:38;5.77;;;1.70;;
4595;SDS011;2310;49.978;8.742;2023-09-19T18:51:41;4.30;;;1.53;;
4595;SDS011;2310;49.978;8.742;2023-09-19T18:55:44;4.90;;;1.60;;
4595;SDS011;2310;49.978;8.742;2023-09-19T18:59:47;4.77;;;1.63;;
4595;SDS011;2310;49.978;8.742;2023-09-19T19:03:51;4.23;;;1.80;;
4595;SDS011;2310;49.978;8.742;2023-09-19T19:07:52;4.30;;;1.80;;
4595;SDS011;2310;49.978;8.742;2023-09-19T19:11:56;3.77;;;1.50;;
4595;SDS011;2310;49.978;8.742;2023-09-19T19:15:57;5.07;;;1.40;;
4595;SDS011;2310;49.978;8.742;2023-09-19T19:20:00;4.63;;;1.80;;
4595;SDS011;2310;49.978;8.742;2023-09-19T19:24:02;4.13;;;1.70;;
4595;SDS011;2310;49.978;8.742;2023-09-19T19:28:05;4.30;;;1.53;;
4595;SDS011;2310;49.978;8.742;2023-09-19T19:32:07;3.00;;;1.20;;
4595;SDS011;2310;49.978;8.742;2023-09-19T19:36:10;5.53;;;1.73;;
4595;SDS011;2310;49.978;8.742;2023-09-19T19:40:12;4.00;;;1.70;;
4595;SDS011;2310;49.978;8.742;2023-09-19T19:44:18;3.50;;;1.60;;
4595;SDS011;2310;49.978;8.742;2023-09-19T19:48:21;6.23;;;1.70;;
4595;SDS011;2310;49.978;8.742;2023-09-19T19:52:23;3.60;;;1.67;;
4595;SDS011;2310;49.978;8.742;2023-09-19T19:56:25;4.20;;;2.30;;
4595;SDS011;2310;49.978;8.742;2023-09-19T20:00:27;5.13;;;1.73;;
4595;SDS011;2310;49.978;8.742;2023-09-19T20:04:31;3.17;;;1.20;;
4595;SDS011;2310;49.978;8.742;2023-09-19T20:08:32;4.23;;;1.80;;
4595;SDS011;2310;49.978;8.742;2023-09-19T20:12:34;5.23;;;1.77;;
4595;SDS011;2310;49.978;8.742;2023-09-19T20:16:37;3.60;;;1.67;;
4595;SDS011;2310;49.978;8.742;2023-09-19T20:20:39;4.20;;;1.80;;
4595;SDS011;2310;49.978;8.742;2023-09-19T20:24:40;3.30;;;1.40;;
4595;SDS011;2310;49.978;8.742;2023-09-19T20:28:44;3.77;;;2.03;;
4595;SDS011;2310;49.978;8.742;2023-09-19T20:32:47;3.70;;;1.80;;
4595;SDS011;2310;49.978;8.742;2023-09-19T20:36:48;3.73;;;1.67;;
4595;SDS011;2310;49.978;8.742;2023-09-19T20:40:50;4.53;;;2.00;;
4595;SDS011;2310;49.978;8.742;2023-09-19T20:44:51;3.60;;;1.90;;
4595;SDS011;2310;49.978;8.742;2023-09-19T20:48:54;4.83;;;1.93;;
4595;SDS011;2310;49.978;8.742;2023-09-19T20:52:56;3.33;;;1.43;;
4595;SDS011;2310;49.978;8.742;2023-09-19T20:56:57;4.90;;;1.70;;
4595;SDS011;2310;49.978;8.742;2023-09-19T21:00:59;4.87;;;2.30;;
4595;SDS011;2310;49.978;8.742;2023-09-19T21:05:02;6.10;;;2.27;;
4595;SDS011;2310;49.978;8.742;2023-09-19T21:09:04;3.80;;;1.83;;
4595;SDS011;2310;49.978;8.742;2023-09-19T21:13:06;5.37;;;1.80;;
4595;SDS011;2310;49.978;8.742;2023-09-19T21:17:07;3.50;;;1.83;;
4595;SDS011;2310;49.978;8.742;2023-09-19T21:21:09;4.17;;;1.57;;
4595;SDS011;2310;49.978;8.742;2023-09-19T21:25:13;5.13;;;1.77;;
4595;SDS011;2310;49.978;8.742;2023-09-19T21:29:15;3.90;;;1.47;;
4595;SDS011;2310;49.978;8.742;2023-09-19T21:33:16;4.20;;;1.87;;
4595;SDS011;2310;49.978;8.742;2023-09-19T21:37:19;5.13;;;1.87;;
4595;SDS011;2310;49.978;8.742;2023-09-19T21:41:20;3.90;;;1.80;;
4595;SDS011;2310;49.978;8.742;2023-09-19T21:45:21;5.27;;;2.00;;
4595;SDS011;2310;49.978;8.742;2023-09-19T21:49:23;5.50;;;2.00;;
4595;SDS011;2310;49.978;8.742;2023-09-19T21:53:24;3.10;;;1.53;;
4595;SDS011;2310;49.978;8.742;2023-09-19T21:57:26;6.00;;;1.80;;
4595;SDS011;2310;49.978;8.742;2023-09-19T22:01:27;3.90;;;1.80;;
4595;SDS011;2310;49.978;8.742;2023-09-19T22:05:29;3.70;;;1.80;;
4595;SDS011;2310;49.978;8.742;2023-09-19T22:09:31;3.70;;;1.43;;
4595;SDS011;2310;49.978;8.742;2023-09-19T22:13:32;3.13;;;1.50;;
4595;SDS011;2310;49.978;8.742;2023-09-19T22:17:34;4.37;;;1.67;;
4595;SDS011;2310;49.978;8.742;2023-09-19T22:21:36;3.30;;;1.30;;
4595;SDS011;2310;49.978;8.742;2023-09-19T22:25:40;4.43;;;1.37;;
4595;SDS011;2310;49.978;8.742;2023-09-19T22:29:42;4.10;;;1.80;;
4595;SDS011;2310;49.978;8.742;2023-09-19T22:33:45;3.63;;;1.80;;
4595;SDS011;2310;49.978;8.742;2023-09-19T22:37:48;7.20;;;1.70;;
4595;SDS011;2310;49.978;8.742;2023-09-19T22:41:51;3.63;;;1.63;;
4595;SDS011;2310;49.978;8.742;2023-09-19T22:45:54;5.47;;;2.10;;
4595;SDS011;2310;49.978;8.742;2023-09-19T22:49:56;4.90;;;1.90;;
4595;SDS011;2310;49.978;8.742;2023-09-19T22:53:58;4.90;;;2.13;;
4595;SDS011;2310;49.978;8.742;2023-09-19T22:58:00;4.30;;;1.90;;
4595;SDS011;2310;49.978;8.742;2023-09-19T23:02:03;3.57;;;1.63;;
4595;SDS011;2310;49.978;8.742;2023-09-19T23:06:06;6.10;;;1.50;;
4595;SDS011;2310;49.978;8.742;2023-09-19T23:10:07;3.50;;;1.90;;
4595;SDS011;2310;49.978;8.742;2023-09-19T23:14:11;3.43;;;1.20;;
4595;SDS011;2310;49.978;8.742;2023-09-19T23:18:14;3.60;;;1.77;;
4595;SDS011;2310;49.978;8.742;2023-09-19T23:22:15;5.83;;;1.97;;
4595;SDS011;2310;49.978;8.742;2023-09-19T23:26:24;5.40;;;1.67;;
4595;SDS011;2310;49.978;8.742;2023-09-19T23:30:26;4.10;;;2.00;;
4595;SDS011;2310;49.978;8.742;2023-09-19T23:34:29;3.97;;;2.30;;
4595;SDS011;2310;49.978;8.742;2023-09-19T23:38:31;4.20;;;2.00;;
4595;SDS011;2310;49.978;8.742;2023-09-19T23:42:33;3.07;;;1.50;;
4595;SDS011;2310;49.978;8.742;2023-09-19T23:46:35;5.67;;;2.20;;
4595;SDS011;2310;49.978;8.742;2023-09-19T23:50:39;3.80;;;2.00;;
4595;SDS011;2310;49.978;8.742;2023-09-19T23:54:42;6.07;;;2.00;;
4595;SDS011;2310;49.978;8.742;2023-09-19T23:58:45;5.70;;;1.63;;
